Time,TemperatureF,DewpointF,PressureIn,WindDirection,WindDirectionDegrees,WindSpeedMPH,WindSpeedGustMPH,Humidity,HourlyPrecipIn,Conditions,Clouds,dailyrainin,SolarRadiationWatts/m^2,SoftwareType,DateUTC
2013-02-13 00:01:00,26.0,14.0,-100.00,South,172,3.0,5.0,61,-99.99,,,0.00,0.000000,,2013-02-13 08:01:00,
2013-02-13 00:11:00,26.0,14.0,-100.00,South,172,3.0,5.0,61,-99.99,,,0.00,0.000000,,2013-02-13 08:11:00,
2013-02-13 00:43:00,24.0,14.0,-100.00,SW,226,1.0,2.0,65,-99.99,,,0.00,0.000000,,2013-02-13 08:43:00,
2013-02-13 00:52:00,24.0,14.0,-100.00,SW,226,1.0,2.0,65,-99.99,,,0.00,0.000000,,2013-02-13 08:52:00,
2013-02-13 01:01:00,24.0,14.0,-100.00,SW,226,1.0,2.0,65,-99.99,,,0.00,0.000000,,2013-02-13 09:01:00,
2013-02-13 01:11:00,24.0,14.0,-100.00,SW,226,1.0,2.0,65,-99.99,,,0.00,0.000000,,2013-02-13 09:11:00,
2013-02-13 01:41:00,23.0,14.0,-100.00,ESE,115,0.0,1.0,68,-99.99,,,0.00,0.000000,,2013-02-13 09:41:00,
2013-02-13 01:52:00,23.0,14.0,-100.00,ESE,115,0.0,1.0,68,-99.99,,,0.00,0.000000,,2013-02-13 09:52:00,
2013-02-13 02:01:00,23.0,14.0,-100.00,ESE,115,0.0,1.0,68,-99.99,,,0.00,0.000000,,2013-02-13 10:01:00,
2013-02-13 02:11:00,23.0,14.0,-100.00,ESE,115,0.0,1.0,68,-99.99,,,0.00,0.000000,,2013-02-13 10:11:00,
2013-02-13 02:41:00,23.0,14.0,-100.00,NNW,337,2.0,4.0,67,-99.99,,,0.00,0.000000,,2013-02-13 10:41:00,
2013-02-13 02:52:00,23.0,14.0,-100.00,NNW,337,2.0,4.0,67,-99.99,,,0.00,0.000000,,2013-02-13 10:52:00,
2013-02-13 03:01:00,23.0,14.0,-100.00,NNW,337,2.0,4.0,67,-99.99,,,0.00,0.000000,,2013-02-13 11:01:00,
2013-02-13 03:11:00,23.0,14.0,-100.00,NNW,337,2.0,4.0,67,-99.99,,,0.00,0.000000,,2013-02-13 11:11:00,
2013-02-13 03:42:00,20.0,12.0,-100.00,South,181,2.0,3.0,72,-99.99,,,0.00,0.000000,,2013-02-13 11:42:00,
2013-02-13 03:52:00,20.0,12.0,-100.00,South,181,2.0,3.0,72,-99.99,,,0.00,0.000000,,2013-02-13 11:52:00,
2013-02-13 04:02:00,20.0,12.0,-100.00,South,181,2.0,3.0,72,-99.99,,,0.00,0.000000,,2013-02-13 12:02:00,
2013-02-13 04:11:00,20.0,12.0,-100.00,South,181,2.0,3.0,72,-99.99,,,0.00,0.000000,,2013-02-13 12:11:00,
2013-02-13 04:42:00,20.0,13.0,-100.00,South,181,0.0,1.0,72,-99.99,,,0.00,0.000000,,2013-02-13 12:42:00,
2013-02-13 04:52:00,20.0,13.0,-100.00,South,181,0.0,1.0,72,-99.99,,,0.00,0.000000,,2013-02-13 12:52:00,
2013-02-13 05:02:00,20.0,13.0,-100.00,South,181,0.0,1.0,72,-99.99,,,0.00,0.000000,,2013-02-13 13:02:00,
2013-02-13 05:11:00,20.0,13.0,-100.00,South,181,0.0,1.0,72,-99.99,,,0.00,0.000000,,2013-02-13 13:11:00,
2013-02-13 05:41:00,19.0,12.0,-100.00,WSW,258,1.0,3.0,73,-99.99,,,0.00,0.000000,,2013-02-13 13:41:00,
2013-02-13 05:52:00,19.0,12.0,-100.00,WSW,258,1.0,3.0,73,-99.99,,,0.00,0.000000,,2013-02-13 13:52:00,
2013-02-13 06:01:00,19.0,12.0,-100.00,WSW,258,1.0,3.0,73,-99.99,,,0.00,0.000000,,2013-02-13 14:01:00,
2013-02-13 06:11:00,19.0,12.0,-100.00,WSW,258,1.0,3.0,73,-99.99,,,0.00,0.000000,,2013-02-13 14:11:00,
2013-02-13 06:41:00,19.0,12.0,-100.00,ESE,113,0.0,1.0,75,-99.99,,,0.00,0.000000,,2013-02-13 14:41:00,
2013-02-13 06:52:00,19.0,12.0,-100.00,ESE,113,0.0,1.0,75,-99.99,,,0.00,0.000000,,2013-02-13 14:52:00,
2013-02-13 07:01:00,19.0,12.0,-100.00,ESE,113,0.0,1.0,75,-99.99,,,0.00,0.000000,,2013-02-13 15:01:00,
2013-02-13 07:11:00,19.0,12.0,-100.00,ESE,113,0.0,1.0,75,-99.99,,,0.00,0.000000,,2013-02-13 15:11:00,
2013-02-13 07:42:00,20.0,13.0,-100.00,NNE,22,1.0,2.0,74,-99.99,,,0.00,38.000000,,2013-02-13 15:42:00,
2013-02-13 07:52:00,20.0,13.0,-100.00,NNE,22,1.0,2.0,74,-99.99,,,0.00,38.000000,,2013-02-13 15:52:00,
2013-02-13 08:01:00,20.0,13.0,-100.00,NNE,22,1.0,2.0,74,-99.99,,,0.00,38.000000,,2013-02-13 16:01:00,
2013-02-13 08:11:00,20.0,13.0,-100.00,NNE,22,1.0,2.0,74,-99.99,,,0.00,38.000000,,2013-02-13 16:11:00,
2013-02-13 08:41:00,29.0,19.0,-100.00,SSW,201,2.0,3.0,64,-99.99,,,0.00,224.190002,,2013-02-13 16:41:00,
2013-02-13 08:52:00,29.0,19.0,-100.00,SSW,201,2.0,3.0,64,-99.99,,,0.00,224.190002,,2013-02-13 16:52:00,
2013-02-13 09:01:00,29.0,19.0,-100.00,SSW,201,2.0,3.0,64,-99.99,,,0.00,224.190002,,2013-02-13 17:01:00,
2013-02-13 09:11:00,29.0,19.0,-100.00,SSW,201,2.0,3.0,64,-99.99,,,0.00,224.190002,,2013-02-13 17:11:00,
2013-02-13 10:11:00,39.0,21.0,-100.00,South,171,2.0,4.0,47,-99.99,,,0.00,390.619995,,2013-02-13 18:11:00,
2013-02-13 10:41:00,44.0,22.0,-100.00,West,281,2.0,5.0,40,-99.99,,,0.00,528.679993,,2013-02-13 18:41:00,
2013-02-13 10:52:00,44.0,22.0,-100.00,West,281,2.0,5.0,40,-99.99,,,0.00,528.679993,,2013-02-13 18:52:00,
2013-02-13 11:01:00,44.0,22.0,-100.00,West,281,2.0,5.0,40,-99.99,,,0.00,528.679993,,2013-02-13 19:01:00,
2013-02-13 11:11:00,44.0,22.0,-100.00,West,281,2.0,5.0,40,-99.99,,,0.00,528.679993,,2013-02-13 19:11:00,
2013-02-13 11:41:00,47.0,22.0,-100.00,South,189,2.0,5.0,38,-99.99,,,0.00,618.289978,,2013-02-13 19:41:00,
2013-02-13 11:52:00,47.0,22.0,-100.00,South,189,2.0,5.0,38,-99.99,,,0.00,618.289978,,2013-02-13 19:52:00,
2013-02-13 12:02:00,47.0,22.0,-100.00,South,189,2.0,5.0,38,-99.99,,,0.00,618.289978,,2013-02-13 20:02:00,
2013-02-13 12:11:00,47.0,22.0,-100.00,South,189,2.0,5.0,38,-99.99,,,0.00,618.289978,,2013-02-13 20:11:00,
2013-02-13 12:41:00,49.0,22.0,-100.00,SW,223,3.0,7.0,34,-99.99,,,0.00,651.650024,,2013-02-13 20:41:00,
2013-02-13 12:52:00,49.0,22.0,-100.00,SW,223,3.0,7.0,34,-99.99,,,0.00,651.650024,,2013-02-13 20:52:00,
2013-02-13 13:01:00,49.0,22.0,-100.00,SW,223,3.0,7.0,34,-99.99,,,0.00,651.650024,,2013-02-13 21:01:00,
2013-02-13 13:11:00,49.0,22.0,-100.00,SW,223,3.0,7.0,34,-99.99,,,0.00,651.650024,,2013-02-13 21:11:00,
2013-02-13 13:42:00,51.0,22.0,-100.00,NNE,22,3.0,9.0,31,-99.99,,,0.00,619.919983,,2013-02-13 21:42:00,
2013-02-13 13:52:00,51.0,22.0,-100.00,NNE,22,3.0,9.0,31,-99.99,,,0.00,619.919983,,2013-02-13 21:52:00,
2013-02-13 14:02:00,51.0,22.0,-100.00,NNE,22,3.0,9.0,31,-99.99,,,0.00,619.919983,,2013-02-13 22:02:00,
2013-02-13 14:11:00,51.0,22.0,-100.00,NNE,22,3.0,9.0,31,-99.99,,,0.00,619.919983,,2013-02-13 22:11:00,
2013-02-13 14:42:00,52.0,22.0,-100.00,East,84,3.0,7.0,30,-99.99,,,0.00,532.520020,,2013-02-13 22:42:00,
2013-02-13 14:52:00,52.0,22.0,-100.00,East,84,3.0,7.0,30,-99.99,,,0.00,532.520020,,2013-02-13 22:52:00,
2013-02-13 15:01:00,52.0,22.0,-100.00,East,84,3.0,7.0,30,-99.99,,,0.00,532.520020,,2013-02-13 23:01:00,
2013-02-13 15:11:00,52.0,22.0,-100.00,East,84,3.0,7.0,30,-99.99,,,0.00,532.520020,,2013-02-13 23:11:00,
2013-02-13 15:41:00,52.0,22.0,-100.00,NNE,19,3.0,10.0,30,-99.99,,,0.00,392.709991,,2013-02-13 23:41:00,
2013-02-13 15:52:00,52.0,22.0,-100.00,NNE,19,3.0,10.0,30,-99.99,,,0.00,392.709991,,2013-02-13 23:52:00,
2013-02-13 16:01:00,52.0,22.0,-100.00,NNE,19,3.0,10.0,30,-99.99,,,0.00,392.709991,,2013-02-14 00:01:00,
2013-02-13 16:11:00,52.0,22.0,-100.00,NNE,19,3.0,10.0,30,-99.99,,,0.00,392.709991,,2013-02-14 00:11:00,
2013-02-13 16:42:00,53.0,23.0,-100.00,NE,56,3.0,6.0,30,-99.99,,,-99.99,225.119995,,2013-02-14 00:42:00,
2013-02-13 16:52:00,53.0,23.0,-100.00,NE,56,3.0,6.0,30,-99.99,,,-99.99,225.119995,,2013-02-14 00:52:00,
2013-02-13 17:01:00,53.0,23.0,-100.00,NE,56,3.0,6.0,30,-99.99,,,-99.99,225.119995,,2013-02-14 01:01:00,
2013-02-13 17:11:00,53.0,23.0,-100.00,NE,56,3.0,6.0,30,-99.99,,,-99.99,225.119995,,2013-02-14 01:11:00,
2013-02-13 19:02:00,42.0,22.0,-100.00,South,171,0.0,2.0,44,-99.99,,,0.00,0.120000,,2013-02-14 03:02:00,
2013-02-13 19:11:00,42.0,22.0,-100.00,South,171,0.0,2.0,44,-99.99,,,0.00,0.120000,,2013-02-14 03:11:00,
2013-02-13 19:42:00,39.0,21.0,-100.00,SSW,200,1.0,2.0,49,-99.99,,,0.00,0.000000,,2013-02-14 03:42:00,
2013-02-13 19:52:00,39.0,21.0,-100.00,SSW,200,1.0,2.0,49,-99.99,,,0.00,0.000000,,2013-02-14 03:52:00,
2013-02-13 20:01:00,39.0,21.0,-100.00,SSW,200,1.0,2.0,49,-99.99,,,0.00,0.000000,,2013-02-14 04:01:00,
2013-02-13 20:11:00,39.0,21.0,-100.00,SSW,200,1.0,2.0,49,-99.99,,,0.00,0.000000,,2013-02-14 04:11:00,
2013-02-13 20:41:00,33.0,20.0,-100.00,SSW,204,1.0,2.0,57,-99.99,,,0.00,0.000000,,2013-02-14 04:41:00,
2013-02-13 20:52:00,33.0,20.0,-100.00,SSW,204,1.0,2.0,57,-99.99,,,0.00,0.000000,,2013-02-14 04:52:00,
2013-02-13 21:01:00,33.0,20.0,-100.00,SSW,204,1.0,2.0,57,-99.99,,,0.00,0.000000,,2013-02-14 05:01:00,
2013-02-13 21:11:00,33.0,20.0,-100.00,SSW,204,1.0,2.0,57,-99.99,,,0.00,0.000000,,2013-02-14 05:11:00,
2013-02-13 21:41:00,32.0,19.0,-100.00,North,0,0.0,0.0,60,-99.99,,,-99.99,0.000000,,2013-02-14 05:41:00,
2013-02-13 21:52:00,32.0,19.0,-100.00,North,0,0.0,0.0,60,-99.99,,,-99.99,0.000000,,2013-02-14 05:52:00,
2013-02-13 22:01:00,32.0,19.0,-100.00,North,0,0.0,0.0,60,-99.99,,,-99.99,0.000000,,2013-02-14 06:01:00,
2013-02-13 22:11:00,32.0,19.0,-100.00,North,0,0.0,0.0,60,-99.99,,,-99.99,0.000000,,2013-02-14 06:11:00,
2013-02-13 22:41:00,30.0,19.0,-100.00,West,268,0.0,1.0,63,-99.99,,,0.00,0.000000,,2013-02-14 06:41:00,
2013-02-13 22:52:00,30.0,19.0,-100.00,West,268,0.0,1.0,63,-99.99,,,0.00,0.000000,,2013-02-14 06:52:00,
2013-02-13 23:01:00,30.0,19.0,-100.00,West,268,0.0,1.0,63,-99.99,,,0.00,0.000000,,2013-02-14 07:01:00,
2013-02-13 23:11:00,30.0,19.0,-100.00,West,268,0.0,1.0,63,-99.99,,,0.00,0.000000,,2013-02-14 07:11:00,
2013-02-13 23:41:00,28.0,19.0,-100.00,North,0,0.0,0.0,68,-99.99,,,0.00,0.000000,,2013-02-14 07:41:00,
2013-02-13 23:52:00,28.0,19.0,-100.00,North,0,0.0,0.0,68,-99.99,,,0.00,0.000000,,2013-02-14 07:52:00,